createdAt,value
2018-01-12T00:01:45.055Z,7.70
2018-01-12T00:04:14.112Z,7.70
2018-01-12T00:06:43.234Z,7.70
2018-01-12T00:09:11.525Z,7.70
2018-01-12T00:11:40.271Z,7.70
2018-01-12T00:14:09.370Z,7.70
2018-01-12T00:16:38.422Z,7.70
2018-01-12T00:19:06.745Z,7.70
2018-01-12T00:21:35.828Z,7.70
2018-01-12T00:24:04.920Z,7.70
2018-01-12T00:26:33.187Z,7.70
2018-01-12T00:29:01.794Z,7.70
2018-01-12T00:31:30.848Z,7.60
2018-01-12T00:33:59.129Z,7.60
2018-01-12T00:36:27.424Z,7.60
2018-01-12T00:38:55.696Z,7.60
2018-01-12T00:41:23.990Z,7.60
2018-01-12T00:43:53.053Z,7.70
2018-01-12T00:46:21.386Z,7.60
2018-01-12T00:48:50.458Z,7.70
2018-01-12T00:51:19.021Z,7.60
2018-01-12T00:53:47.312Z,7.70
2018-01-12T00:56:15.599Z,7.70
2018-01-12T00:58:43.924Z,7.70
2018-01-12T01:01:12.204Z,7.70
2018-01-12T01:03:40.500Z,7.70
2018-01-12T01:06:08.780Z,7.70
2018-01-12T01:08:37.395Z,7.70
2018-01-12T01:11:05.676Z,7.70
2018-01-12T01:13:34.771Z,7.80
2018-01-12T01:16:03.119Z,7.80
2018-01-12T01:18:31.420Z,7.80
2018-01-12T01:20:59.706Z,7.80
2018-01-12T01:23:28.761Z,7.80
2018-01-12T01:25:57.037Z,7.70
2018-01-12T01:28:25.361Z,7.80
2018-01-12T01:30:54.414Z,7.70
2018-01-12T01:33:22.746Z,7.70
2018-01-12T01:35:51.801Z,7.70
2018-01-12T01:38:20.089Z,7.70
2018-01-12T01:40:50.237Z,7.70
2018-01-12T01:43:28.844Z,7.70
2018-01-12T01:45:57.884Z,7.60
2018-01-12T01:48:38.293Z,7.60
2018-01-12T01:51:06.588Z,7.70
2018-01-12T01:53:34.848Z,7.70
2018-01-12T01:56:03.152Z,7.60
2018-01-12T01:58:32.195Z,7.60
2018-01-12T02:01:00.605Z,7.60
2018-01-12T02:03:28.851Z,7.60
2018-01-12T02:05:57.134Z,7.50
2018-01-12T02:08:25.444Z,7.90
2018-01-12T02:10:53.712Z,7.50
2018-01-12T02:13:22.008Z,7.50
2018-01-12T02:15:50.285Z,7.50
2018-01-12T02:18:19.347Z,7.50
2018-01-12T02:20:47.604Z,7.50
2018-01-12T02:23:15.902Z,7.40
2018-01-12T02:25:44.168Z,7.40
2018-01-12T02:28:12.482Z,7.40
2018-01-12T02:30:40.777Z,7.40
2018-01-12T02:33:09.817Z,7.40
2018-01-12T02:35:38.108Z,7.40
2018-01-12T02:38:06.389Z,7.30
2018-01-12T02:40:34.699Z,7.40
2018-01-12T02:43:02.968Z,7.30
2018-01-12T02:45:31.561Z,7.30
2018-01-12T02:47:59.829Z,7.30
2018-01-12T02:50:28.886Z,7.40
2018-01-12T02:52:57.192Z,7.40
2018-01-12T02:55:25.443Z,7.40
2018-01-12T02:57:53.764Z,7.30
2018-01-12T03:00:22.030Z,7.30
2018-01-12T03:02:50.627Z,7.30
2018-01-12T03:05:18.894Z,7.30
2018-01-12T03:07:47.167Z,7.20
2018-01-12T03:10:15.466Z,7.20
2018-01-12T03:12:44.518Z,7.20
2018-01-12T03:15:12.809Z,7.20
2018-01-12T03:17:41.070Z,7.20
2018-01-12T03:20:09.769Z,7.20
2018-01-12T03:22:38.796Z,7.20
2018-01-12T03:25:07.073Z,7.20
2018-01-12T03:27:36.136Z,7.10
2018-01-12T03:30:04.413Z,7.20
2018-01-12T03:32:32.709Z,7.10
2018-01-12T03:35:01.001Z,7.10
2018-01-12T03:37:30.371Z,7.10
2018-01-12T03:39:58.681Z,7.10
2018-01-12T03:42:27.706Z,7.40
2018-01-12T03:44:56.002Z,7.10
2018-01-12T03:47:24.270Z,7.10
2018-01-12T03:49:52.560Z,7.10
2018-01-12T03:52:20.842Z,7.10
2018-01-12T03:54:49.460Z,7.10
2018-01-12T03:57:17.734Z,7.10
2018-01-12T03:59:46.023Z,7.10
2018-01-12T04:02:14.313Z,7.10
2018-01-12T04:04:43.348Z,7.20
2018-01-12T04:07:11.672Z,7.20
2018-01-12T04:09:44.412Z,7.20
2018-01-12T04:12:13.089Z,7.20
2018-01-12T04:14:41.352Z,7.20
2018-01-12T04:17:09.634Z,7.30
2018-01-12T04:19:37.953Z,7.20
2018-01-12T04:22:06.932Z,7.30
2018-01-12T04:24:35.226Z,7.30
2018-01-12T04:27:03.496Z,7.30
2018-01-12T04:29:32.078Z,7.30
2018-01-12T04:32:00.337Z,7.30
2018-01-12T04:34:28.650Z,7.30
2018-01-12T04:36:56.941Z,7.30
2018-01-12T04:39:25.248Z,7.30
2018-01-12T04:41:53.541Z,7.30
2018-01-12T04:44:21.818Z,7.30
2018-01-12T04:46:50.442Z,7.30
2018-01-12T04:49:18.723Z,7.20
2018-01-12T04:51:47.032Z,7.20
2018-01-12T04:54:16.090Z,7.30
2018-01-12T04:56:44.372Z,7.30
2018-01-12T04:59:12.760Z,7.30
2018-01-12T05:01:41.824Z,7.30
2018-01-12T05:04:10.554Z,7.30
2018-01-12T05:06:38.839Z,7.40
2018-01-12T05:09:07.921Z,7.40
2018-01-12T05:11:36.219Z,7.60
2018-01-12T05:14:04.498Z,7.40
2018-01-12T05:16:33.785Z,7.40
2018-01-12T05:19:02.063Z,7.40
2018-01-12T05:21:30.386Z,7.40
2018-01-12T05:23:58.656Z,7.50
2018-01-12T05:26:27.998Z,7.40
2018-01-12T05:28:56.270Z,7.40
2018-01-12T05:31:24.549Z,7.40
2018-01-12T05:33:52.857Z,7.40
2018-01-12T05:36:21.134Z,7.30
2018-01-12T05:38:49.456Z,7.30
2018-01-12T05:41:17.731Z,7.30
2018-01-12T05:43:46.023Z,7.30
2018-01-12T05:46:14.304Z,7.30
2018-01-12T05:48:42.906Z,7.30
2018-01-12T05:51:11.160Z,7.30
2018-01-12T05:53:39.454Z,7.30
2018-01-12T05:56:07.802Z,7.30
2018-01-12T05:58:36.822Z,7.30
2018-01-12T06:01:17.045Z,7.30
2018-01-12T06:03:57.002Z,7.30
2018-01-12T06:06:26.269Z,7.30
2018-01-12T06:08:55.385Z,7.30
2018-01-12T06:11:24.001Z,7.30
2018-01-12T06:13:52.290Z,7.30
2018-01-12T06:16:20.551Z,7.30
2018-01-12T06:18:48.864Z,7.30
2018-01-12T06:21:17.152Z,7.40
2018-01-12T06:23:45.469Z,7.40
2018-01-12T06:26:13.785Z,7.30
2018-01-12T06:28:42.382Z,7.30
2018-01-12T06:31:10.644Z,7.30
2018-01-12T06:33:38.989Z,7.30
2018-01-12T06:36:08.078Z,7.30
2018-01-12T06:38:36.394Z,7.30
2018-01-12T06:41:04.663Z,7.30
2018-01-12T06:43:32.940Z,7.30
2018-01-12T06:46:01.234Z,7.30
2018-01-12T06:48:29.509Z,7.30
2018-01-12T06:50:58.148Z,7.30
2018-01-12T06:53:27.192Z,7.30
2018-01-12T06:55:55.566Z,7.30
2018-01-12T06:58:23.862Z,7.30
2018-01-12T07:00:52.140Z,7.30
2018-01-12T07:03:20.530Z,7.30
2018-01-12T07:05:48.813Z,7.30
2018-01-12T07:08:17.405Z,7.30
2018-01-12T07:10:45.689Z,7.30
2018-01-12T07:13:14.736Z,7.20
2018-01-12T07:15:43.028Z,7.30
2018-01-12T07:18:11.296Z,7.30
2018-01-12T07:20:51.377Z,7.20
2018-01-12T07:23:31.592Z,7.20
2018-01-12T07:25:59.918Z,7.20
2018-01-12T07:28:28.189Z,7.20
2018-01-12T07:30:56.777Z,7.20
2018-01-12T07:33:25.079Z,7.20
2018-01-12T07:35:54.130Z,7.20
2018-01-12T07:38:22.530Z,7.20
2018-01-12T07:40:50.803Z,7.20
2018-01-12T07:43:19.156Z,7.30
2018-01-12T07:45:47.453Z,7.30
2018-01-12T07:48:16.041Z,7.30
2018-01-12T07:50:44.318Z,7.30
2018-01-12T07:53:18.550Z,7.30
2018-01-12T07:55:46.900Z,7.40
2018-01-12T07:58:15.164Z,7.40
2018-01-12T08:00:49.239Z,7.40
2018-01-12T08:03:17.501Z,7.30
2018-01-12T08:05:46.574Z,7.30
2018-01-12T08:08:14.852Z,7.30
2018-01-12T08:10:43.169Z,7.30
2018-01-12T08:13:12.212Z,7.30
2018-01-12T08:15:40.781Z,7.30
2018-01-12T08:18:09.049Z,7.30
2018-01-12T08:20:37.324Z,7.30
2018-01-12T08:23:05.708Z,7.30
2018-01-12T08:25:34.032Z,7.30
2018-01-12T08:28:02.324Z,7.30
2018-01-12T08:30:30.633Z,7.30
2018-01-12T08:32:58.950Z,7.40
2018-01-12T08:35:27.239Z,7.40
2018-01-12T08:37:55.529Z,7.40
2018-01-12T08:40:24.194Z,7.40
2018-01-12T08:42:52.455Z,7.40
2018-01-12T08:45:20.871Z,7.40
2018-01-12T08:47:49.927Z,7.40
2018-01-12T08:50:18.249Z,7.60
2018-01-12T08:52:46.805Z,7.40
2018-01-12T08:55:15.090Z,7.50
2018-01-12T08:57:43.364Z,7.50
2018-01-12T09:00:11.671Z,7.50
2018-01-12T09:02:40.851Z,7.50
2018-01-12T09:05:09.153Z,7.50
2018-01-12T09:07:38.208Z,7.60
2018-01-12T09:10:06.825Z,7.60
2018-01-12T09:12:35.116Z,7.60
2018-01-12T09:15:26.171Z,7.60
2018-01-12T09:17:55.225Z,7.60
2018-01-12T09:20:24.265Z,7.60
2018-01-12T09:22:52.577Z,7.60
2018-01-12T09:25:25.474Z,7.70
2018-01-12T09:27:54.558Z,7.70
2018-01-12T09:30:22.819Z,7.70
2018-01-12T09:32:52.201Z,7.80
2018-01-12T09:35:20.488Z,7.70
2018-01-12T09:38:00.920Z,7.80
2018-01-12T09:40:31.144Z,7.80
2018-01-12T09:42:59.425Z,7.80
2018-01-12T09:45:27.715Z,7.80
2018-01-12T09:48:18.552Z,7.90
2018-01-12T09:50:46.829Z,7.80
2018-01-12T09:53:15.401Z,7.90
2018-01-12T09:55:43.689Z,7.90
2018-01-12T09:58:11.963Z,7.90
2018-01-12T10:00:47.181Z,7.90
2018-01-12T10:03:15.465Z,7.90
2018-01-12T10:05:43.802Z,8.00
2018-01-12T10:08:16.663Z,8.30
2018-01-12T10:10:45.225Z,7.90
2018-01-12T10:13:13.499Z,7.90
2018-01-12T10:15:41.776Z,7.90
2018-01-12T10:18:12.640Z,7.80
2018-01-12T10:20:40.903Z,7.80
2018-01-12T10:23:09.204Z,7.80
2018-01-12T10:25:37.508Z,7.80
2018-01-12T10:28:06.139Z,7.80
2018-01-12T10:30:54.895Z,7.80
2018-01-12T10:33:31.903Z,7.80
2018-01-12T10:36:00.207Z,7.80
2018-01-12T10:38:28.479Z,7.80
2018-01-12T10:41:18.330Z,7.80
2018-01-12T10:43:46.624Z,7.90
2018-01-12T10:46:51.230Z,7.90
2018-01-12T10:49:27.407Z,7.90
2018-01-12T10:52:05.766Z,7.90
2018-01-12T10:54:34.058Z,7.90
2018-01-12T10:57:02.384Z,7.90
2018-01-12T10:59:30.664Z,7.90
2018-01-12T11:01:59.781Z,7.90
2018-01-12T11:04:28.835Z,8.00
2018-01-12T11:06:57.524Z,7.90
2018-01-12T11:09:25.829Z,7.90
2018-01-12T11:11:54.879Z,8.00
2018-01-12T11:14:23.225Z,8.00
2018-01-12T11:16:51.523Z,8.00
2018-01-12T11:19:19.844Z,8.00
2018-01-12T11:21:48.132Z,8.00
2018-01-12T11:24:17.473Z,8.10
2018-01-12T11:26:45.743Z,8.10
2018-01-12T11:29:14.021Z,8.10
2018-01-12T11:31:42.325Z,8.20
2018-01-12T11:34:10.608Z,8.20
2018-01-12T11:36:38.896Z,8.20
2018-01-12T11:39:07.181Z,8.30
2018-01-12T11:41:35.479Z,8.30
2018-01-12T11:44:03.769Z,8.30
2018-01-12T11:46:33.165Z,8.30
2018-01-12T11:49:01.446Z,8.30
2018-01-12T11:51:30.489Z,8.40
2018-01-12T11:53:58.783Z,8.40
2018-01-12T11:56:27.062Z,8.40
2018-01-12T11:58:55.371Z,8.40
2018-01-12T12:01:23.717Z,8.50
2018-01-12T12:03:52.041Z,8.60
2018-01-12T12:06:20.318Z,8.60
2018-01-12T12:08:49.717Z,8.60
2018-01-12T12:11:17.996Z,8.60
2018-01-12T12:13:47.064Z,8.60
2018-01-12T12:16:15.372Z,8.70
2018-01-12T12:18:44.416Z,8.60
2018-01-12T12:21:12.727Z,8.50
2018-01-12T12:23:41.016Z,8.50
2018-01-12T12:26:10.092Z,8.50
2018-01-12T12:28:38.350Z,8.50
2018-01-12T12:31:06.633Z,8.50
2018-01-12T12:33:34.998Z,8.50
2018-01-12T12:36:04.010Z,8.50
2018-01-12T12:38:32.312Z,8.50
2018-01-12T12:41:00.597Z,8.40
2018-01-12T12:43:28.896Z,8.50
2018-01-12T12:45:57.189Z,8.40
2018-01-12T12:48:25.491Z,8.40
2018-01-12T12:50:53.762Z,8.40
2018-01-12T12:53:22.044Z,8.50
2018-01-12T12:55:50.349Z,8.50
2018-01-12T12:58:18.642Z,8.50
2018-01-12T13:00:47.711Z,8.50
2018-01-12T13:03:16.040Z,8.50
2018-01-12T13:05:44.352Z,8.50
2018-01-12T13:08:12.664Z,8.50
2018-01-12T13:10:41.004Z,8.50
2018-01-12T13:13:09.313Z,8.50
2018-01-12T13:15:37.595Z,8.50
2018-01-12T13:18:06.701Z,8.40
2018-01-12T13:20:35.310Z,8.40
2018-01-12T13:23:05.010Z,8.40
2018-01-12T13:25:34.044Z,8.40
2018-01-12T13:28:02.346Z,8.40
2018-01-12T13:30:31.343Z,8.40
2018-01-12T13:33:00.114Z,8.40
2018-01-12T13:35:28.421Z,8.30
2018-01-12T13:37:56.732Z,8.30
2018-01-12T13:40:25.805Z,8.20
2018-01-12T13:42:54.069Z,8.10
2018-01-12T13:45:22.393Z,8.10
2018-01-12T13:47:50.690Z,8.00
2018-01-12T13:50:19.743Z,8.00
2018-01-12T13:52:48.835Z,8.00
2018-01-12T13:55:17.906Z,7.90
2018-01-12T13:57:46.210Z,7.90
2018-01-12T14:00:15.284Z,7.80
2018-01-12T14:02:43.592Z,7.80
2018-01-12T14:05:12.650Z,7.70
2018-01-12T14:07:40.921Z,7.70
2018-01-12T14:10:09.252Z,7.60
2018-01-12T14:12:37.544Z,7.60
2018-01-12T14:15:05.918Z,7.60
2018-01-12T14:17:34.197Z,7.60
2018-01-12T14:20:02.480Z,7.60
2018-01-12T14:22:30.772Z,7.50
2018-01-12T14:24:59.064Z,7.50
2018-01-12T14:27:27.491Z,7.50
2018-01-12T14:29:56.530Z,7.40
2018-01-12T14:32:24.827Z,7.40
2018-01-12T14:34:53.126Z,7.30
2018-01-12T14:37:22.261Z,7.30
2018-01-12T14:39:50.548Z,7.30
2018-01-12T14:42:18.845Z,7.20
2018-01-12T14:44:47.153Z,7.20
2018-01-12T14:47:15.432Z,7.20
2018-01-12T14:49:43.727Z,7.20
2018-01-12T14:52:12.781Z,7.20
2018-01-12T14:54:41.092Z,7.10
2018-01-12T14:57:09.370Z,7.10
2018-01-12T14:59:37.799Z,7.10
2018-01-12T15:02:06.071Z,7.10
2018-01-12T15:04:34.374Z,7.10
2018-01-12T15:07:12.472Z,7.00
2018-01-12T15:09:42.943Z,7.00
2018-01-12T15:12:11.277Z,6.90
2018-01-12T15:14:39.557Z,6.90
2018-01-12T15:17:08.628Z,6.90
2018-01-12T15:19:36.904Z,6.90
2018-01-12T15:22:05.238Z,6.90
2018-01-12T15:24:33.505Z,6.90
2018-01-12T15:27:01.778Z,6.90
2018-01-12T15:29:30.077Z,6.80
2018-01-12T15:31:58.411Z,6.90
2018-01-12T15:34:27.911Z,6.90
2018-01-12T15:36:56.196Z,6.80
2018-01-12T15:39:24.468Z,6.90
2018-01-12T15:41:52.788Z,6.80
2018-01-12T15:44:21.130Z,6.80
2018-01-12T15:46:49.503Z,6.80
2018-01-12T15:49:17.971Z,6.80
2018-01-12T15:51:46.322Z,6.80
2018-01-12T15:54:14.600Z,6.70
2018-01-12T15:56:44.366Z,6.70
2018-01-12T15:59:12.821Z,6.70
2018-01-12T16:01:41.358Z,6.70
2018-01-12T16:04:09.839Z,6.70
2018-01-12T16:06:44.941Z,6.70
2018-01-12T16:09:13.542Z,6.70
2018-01-12T16:11:41.833Z,6.70
2018-01-12T16:17:45.092Z,6.70
2018-01-12T16:20:14.874Z,6.70
2018-01-12T16:23:05.553Z,6.70
2018-01-12T16:32:16.583Z,6.70
2018-01-12T16:34:44.882Z,6.60
2018-01-12T16:37:13.240Z,6.60
2018-01-12T16:39:41.835Z,6.60
2018-01-12T16:42:10.098Z,6.60
2018-01-12T16:44:38.402Z,6.60
2018-01-12T16:47:06.689Z,6.60
2018-01-12T16:49:35.022Z,6.60
2018-01-12T16:52:03.305Z,6.60
2018-01-12T16:54:31.645Z,6.60
2018-01-12T16:57:00.689Z,6.50
2018-01-12T16:59:28.988Z,6.50
2018-01-12T17:01:57.337Z,6.50
2018-01-12T17:04:25.588Z,6.60
2018-01-12T17:06:53.941Z,6.60
2018-01-12T17:09:22.220Z,6.60
2018-01-12T17:11:51.313Z,6.60
2018-01-12T17:14:20.401Z,6.70
2018-01-12T17:16:48.666Z,6.60
2018-01-12T17:19:16.991Z,6.70
2018-01-12T17:21:46.157Z,6.70
2018-01-12T17:24:14.845Z,6.70
2018-01-12T17:26:43.163Z,6.70
2018-01-12T17:29:11.428Z,6.70
2018-01-12T17:31:39.726Z,6.70
2018-01-12T17:34:08.025Z,6.70
2018-01-12T17:36:36.396Z,6.70
2018-01-12T17:39:04.681Z,6.60
2018-01-12T17:41:33.022Z,6.70
2018-01-12T17:44:02.054Z,6.60
2018-01-12T17:46:30.639Z,6.60
2018-01-12T17:48:58.942Z,6.70
2018-01-12T17:51:28.198Z,6.60
2018-01-12T17:53:56.520Z,6.60
2018-01-12T17:56:24.812Z,6.60
2018-01-12T17:58:53.146Z,6.50
2018-01-12T18:01:21.458Z,6.50
2018-01-12T18:03:49.845Z,6.60
2018-01-12T18:06:18.164Z,6.60
2018-01-12T18:08:46.514Z,6.60
2018-01-12T18:11:14.858Z,6.60
2018-01-12T18:13:43.158Z,6.60
2018-01-12T18:16:11.540Z,6.60
2018-01-12T18:18:41.789Z,6.60
2018-01-12T18:21:10.119Z,6.50
2018-01-12T18:23:38.480Z,6.50
2018-01-12T18:26:06.846Z,6.50
2018-01-12T18:28:35.199Z,6.40
2018-01-12T18:31:04.320Z,6.50
2018-01-12T18:33:32.683Z,6.40
2018-01-12T18:36:01.763Z,6.60
2018-01-12T18:38:30.981Z,6.50
2018-01-12T18:41:00.914Z,6.50
2018-01-12T18:43:29.237Z,6.50
2018-01-12T18:45:58.330Z,6.50
2018-01-12T18:48:26.640Z,6.50
2018-01-12T18:50:56.622Z,6.50
2018-01-12T18:53:26.682Z,6.50
2018-01-12T18:55:55.769Z,6.50
2018-01-12T18:58:25.128Z,6.40
2018-01-12T19:00:53.437Z,6.40
2018-01-12T19:03:21.757Z,6.40
2018-01-12T19:05:50.050Z,6.40
2018-01-12T19:08:18.434Z,6.40
2018-01-12T19:10:46.759Z,6.40
2018-01-12T19:13:19.010Z,6.40
2018-01-12T19:15:47.327Z,6.40
2018-01-12T19:18:18.049Z,6.40
2018-01-12T19:20:47.138Z,6.40
2018-01-12T19:23:15.428Z,6.40
2018-01-12T19:25:44.529Z,6.40
2018-01-12T19:28:13.578Z,6.40
2018-01-12T19:30:41.986Z,6.40
2018-01-12T19:33:10.263Z,6.40
2018-01-12T19:35:38.715Z,6.40
2018-01-12T19:38:07.029Z,6.40
2018-01-12T19:40:36.146Z,6.40
2018-01-12T19:43:04.524Z,6.40
2018-01-12T19:45:32.787Z,6.40
2018-01-12T19:48:01.073Z,6.40
2018-01-12T19:50:29.482Z,6.40
2018-01-12T19:52:57.776Z,6.40
2018-01-12T19:55:26.078Z,6.40
2018-01-12T19:57:54.392Z,6.40
2018-01-12T20:00:23.542Z,6.40
2018-01-12T20:02:51.878Z,6.40
2018-01-12T20:05:20.384Z,6.40
2018-01-12T20:07:49.417Z,6.40
2018-01-12T20:10:17.772Z,6.30
2018-01-12T20:12:46.065Z,6.40
2018-01-12T20:15:14.784Z,6.40
2018-01-12T20:17:43.112Z,6.40
2018-01-12T20:20:12.166Z,6.50
2018-01-12T20:22:41.255Z,6.50
2018-01-12T20:25:09.860Z,6.50
2018-01-12T20:27:38.525Z,6.50
2018-01-12T20:30:06.858Z,6.40
2018-01-12T20:32:35.191Z,6.50
2018-01-12T20:35:04.275Z,6.50
2018-01-12T20:37:32.667Z,6.50
2018-01-12T20:40:01.893Z,6.40
2018-01-12T20:42:30.256Z,6.50
2018-01-12T20:44:58.708Z,6.50
2018-01-12T20:47:27.034Z,6.50
2018-01-12T20:49:55.342Z,6.50
2018-01-12T20:52:23.676Z,6.50
2018-01-12T20:54:55.275Z,6.50
2018-01-12T20:57:23.596Z,6.50
2018-01-12T20:59:52.672Z,6.50
2018-01-12T21:02:21.049Z,6.50
2018-01-12T21:04:49.572Z,6.50
2018-01-12T21:07:17.953Z,6.40
2018-01-12T21:09:46.259Z,6.40
2018-01-12T21:12:14.610Z,6.50
2018-01-12T21:14:42.982Z,6.40
2018-01-12T21:17:12.082Z,6.50
2018-01-12T21:19:41.359Z,6.50
2018-01-12T21:22:14.357Z,6.50
2018-01-12T21:24:42.818Z,6.50
2018-01-12T21:27:11.130Z,6.50
2018-01-12T21:29:40.299Z,6.50
2018-01-12T21:32:08.743Z,6.50
2018-01-12T21:34:37.290Z,6.50
2018-01-12T21:37:06.412Z,6.50
2018-01-12T21:39:36.109Z,6.40
2018-01-12T21:42:04.451Z,6.40
2018-01-12T21:44:32.740Z,6.40
2018-01-12T21:47:02.148Z,6.40
2018-01-12T21:49:31.262Z,6.40
2018-01-12T21:52:00.307Z,6.40
2018-01-12T21:54:28.620Z,6.40
2018-01-12T21:56:57.674Z,6.30
2018-01-12T21:59:25.986Z,6.30
2018-01-12T22:01:54.286Z,6.30
2018-01-12T22:04:22.642Z,6.20
2018-01-12T22:06:50.911Z,6.20
2018-01-12T22:09:19.189Z,6.20
2018-01-12T22:11:47.510Z,6.20
2018-01-12T22:14:15.790Z,6.20
2018-01-12T22:16:44.137Z,6.20
2018-01-12T22:19:12.451Z,6.20
2018-01-12T22:21:40.748Z,6.20
2018-01-12T22:24:09.045Z,6.30
2018-01-12T22:26:37.350Z,6.30
2018-01-12T22:29:05.645Z,6.30
2018-01-12T22:31:33.993Z,6.30
2018-01-12T22:34:02.403Z,6.40
2018-01-12T22:36:31.502Z,6.40
2018-01-12T22:39:00.646Z,6.40
2018-01-12T22:41:28.932Z,6.40
2018-01-12T22:43:57.241Z,6.40
2018-01-12T22:46:26.325Z,6.40
2018-01-12T22:48:54.696Z,6.40
2018-01-12T22:51:23.016Z,6.40
2018-01-12T22:53:51.306Z,6.40
2018-01-12T22:56:19.652Z,6.40
2018-01-12T22:58:48.855Z,6.40
2018-01-12T23:01:17.162Z,6.30
2018-01-12T23:03:45.515Z,6.40
2018-01-12T23:06:13.821Z,6.40
2018-01-12T23:08:42.127Z,6.30
2018-01-12T23:11:10.437Z,6.40
2018-01-12T23:13:38.749Z,6.40
2018-01-12T23:16:07.058Z,6.40
2018-01-12T23:18:35.324Z,6.40
2018-01-12T23:21:03.643Z,6.40
2018-01-12T23:23:31.920Z,6.40
2018-01-12T23:26:00.212Z,6.50
2018-01-12T23:28:28.571Z,6.40
2018-01-12T23:30:56.898Z,6.40
2018-01-12T23:33:25.192Z,6.40
2018-01-12T23:35:53.517Z,6.40
2018-01-12T23:38:21.970Z,6.40
2018-01-12T23:40:50.336Z,6.50
2018-01-12T23:43:18.634Z,6.40
2018-01-12T23:45:46.907Z,6.50
2018-01-12T23:48:15.234Z,6.50
2018-01-12T23:50:44.357Z,6.50
2018-01-12T23:53:12.700Z,6.50
2018-01-12T23:55:41.748Z,6.60
2018-01-12T23:58:10.064Z,6.50
